Santa Maria da Boa Vista, Brazil
Current Conditions -  °F | °C
As of 8:00 AM on Saturday 20 Dec 2014 (Local Time) from SBPL Reporting Station
Broken Clouds Broken Clouds  
Wind Chill: 77°   Ceiling: 8000
Heat Index: 78°   Visibility: 6mi
Dew Point: 77°   Wind: 3mph
Humidity: 100%   Direction: 100°E
Pressure: 29.97"   Gusts: NA
Location:  8.81°S, 39.83°W
Report Text: SBPL 201100Z 10003KT 9999 FEW025 BKN080 25/25 Q1015
Loading
Personal Weather Stations






























Interactive Weather Map New forecast layout! Learn more

10-Day Weather Forecast

Advertisements
Track Severe Weather on mobile